Terminal Aerodrome Forecast
Issued by NWS

Home | Current Version | Previous Version | Text Only | Print | Product List | Glossary On
Versions: 1 2 3 4 5 6 7 8 9 10 11 12 13 14 15 16 17 18 19 20 21 22
056
FTUS41 KBTV 031739
TAFMSS
TAF
KMSS 031739Z 0318/0418 28010G18KT P6SM SCT025 OVC035
      TEMPO 0318/0321 BKN025 OVC030
     FM032100 29010KT P6SM VCSH OVC035
     FM040500 30005KT P6SM BKN025 OVC030
     FM041200 29005KT P6SM SCT035 BKN080=

USA.gov is the U.S. government's official web portal to all federal, state and local government web resources and services.